createdAt,value
2024-05-09T00:00:39.166Z,86.20
2024-05-09T00:03:08.430Z,86.10
2024-05-09T00:05:37.007Z,86.00
2024-05-09T00:08:04.750Z,86.20
2024-05-09T00:10:36.557Z,86.10
2024-05-09T00:13:06.535Z,86.10
2024-05-09T00:15:34.373Z,86.30
2024-05-09T00:18:02.070Z,86.30
2024-05-09T00:20:37.310Z,86.20
2024-05-09T00:23:07.988Z,86.30
2024-05-09T00:25:35.404Z,86.30
2024-05-09T00:28:02.819Z,86.20
2024-05-09T00:30:34.516Z,86.20
2024-05-09T00:33:04.738Z,86.30
2024-05-09T00:35:32.304Z,86.30
2024-05-09T00:37:59.708Z,86.20
2024-05-09T00:40:37.215Z,86.20
2024-05-09T00:43:06.982Z,86.40
2024-05-09T00:45:34.944Z,86.60
2024-05-09T00:48:09.105Z,86.50
2024-05-09T00:50:40.682Z,86.40
2024-05-09T00:53:11.002Z,86.20
2024-05-09T00:55:38.832Z,86.10
2024-05-09T00:58:07.579Z,86.30
2024-05-09T01:00:39.270Z,86.30
2024-05-09T01:03:09.270Z,86.50
2024-05-09T01:05:39.180Z,86.60
2024-05-09T01:08:07.107Z,86.40
2024-05-09T01:10:35.535Z,86.40
2024-05-09T01:13:07.191Z,86.50
2024-05-09T01:15:35.349Z,86.60
2024-05-09T01:18:10.469Z,86.70
2024-05-09T01:20:42.301Z,86.50
2024-05-09T01:23:12.226Z,86.20
2024-05-09T01:25:39.970Z,86.20
2024-05-09T01:28:07.250Z,86.40
2024-05-09T01:30:36.456Z,86.50
2024-05-09T01:33:09.584Z,86.60
2024-05-09T01:35:38.901Z,86.80
2024-05-09T01:38:06.615Z,87.00
2024-05-09T01:40:38.390Z,86.70
2024-05-09T01:43:08.548Z,86.70
2024-05-09T01:45:36.368Z,86.40
2024-05-09T01:48:03.815Z,86.40
2024-05-09T01:53:00.674Z,86.80
2024-05-09T01:55:27.512Z,86.50
2024-05-09T01:57:54.267Z,86.50
2024-05-09T02:00:30.521Z,86.60
2024-05-09T02:03:05.387Z,86.90
2024-05-09T02:05:32.505Z,86.60
2024-05-09T02:07:59.359Z,86.70
2024-05-09T02:10:31.982Z,86.80
2024-05-09T02:12:59.864Z,86.60
2024-05-09T02:15:26.614Z,86.50
2024-05-09T02:17:53.494Z,86.60
2024-05-09T02:20:30.103Z,86.50
2024-05-09T02:23:04.106Z,86.50
2024-05-09T02:25:32.280Z,87.70
2024-05-09T02:27:59.373Z,86.70
2024-05-09T02:30:36.495Z,87.40
2024-05-09T02:33:08.412Z,86.70
2024-05-09T02:35:36.033Z,86.80
2024-05-09T02:38:03.020Z,86.70
2024-05-09T02:40:36.652Z,87.40
2024-05-09T02:43:08.291Z,86.70
2024-05-09T02:45:35.917Z,86.60
2024-05-09T02:48:03.155Z,86.50
2024-05-09T02:50:37.152Z,86.60
2024-05-09T02:53:07.612Z,86.50
2024-05-09T02:55:34.986Z,86.80
2024-05-09T02:58:01.921Z,87.00
2024-05-09T03:00:36.928Z,87.10
2024-05-09T03:03:08.499Z,87.20
2024-05-09T03:05:36.872Z,87.00
2024-05-09T03:08:04.474Z,86.80
2024-05-09T03:10:36.083Z,86.80
2024-05-09T03:13:14.009Z,86.80
2024-05-09T03:15:42.432Z,87.00
2024-05-09T03:18:09.687Z,87.10
2024-05-09T03:20:37.834Z,87.00
2024-05-09T03:23:08.062Z,87.00
2024-05-09T03:25:35.950Z,86.90
2024-05-09T03:28:02.870Z,87.00
2024-05-09T03:30:38.746Z,87.10
2024-05-09T03:33:19.968Z,87.10
2024-05-09T03:35:48.252Z,86.80
2024-05-09T03:38:15.621Z,86.60
2024-05-09T03:40:47.008Z,86.80
2024-05-09T03:43:14.327Z,86.80
2024-05-09T03:45:42.627Z,86.80
2024-05-09T03:48:09.773Z,86.80
2024-05-09T03:50:37.379Z,86.90
2024-05-09T03:53:05.157Z,87.00
2024-05-09T03:55:32.273Z,87.00
2024-05-09T03:57:59.436Z,87.00
2024-05-09T04:00:34.898Z,87.00
2024-05-09T04:03:08.272Z,86.90
2024-05-09T04:05:39.378Z,87.10
2024-05-09T04:08:06.630Z,87.00
2024-05-09T04:10:34.917Z,87.20
2024-05-09T04:13:03.277Z,87.00
2024-05-09T04:15:30.553Z,86.90
2024-05-09T04:17:57.623Z,87.30
2024-05-09T04:20:34.249Z,87.40
2024-05-09T04:23:06.711Z,87.10
2024-05-09T04:25:34.005Z,87.20
2024-05-09T04:28:00.943Z,87.10
2024-05-09T04:30:36.450Z,87.10
2024-05-09T04:33:08.107Z,86.90
2024-05-09T04:35:36.897Z,87.00
2024-05-09T04:38:04.436Z,87.10
2024-05-09T04:40:34.941Z,87.30
2024-05-09T04:43:05.046Z,87.40
2024-05-09T04:45:32.072Z,87.40
2024-05-09T04:47:59.190Z,87.30
2024-05-09T04:50:35.393Z,87.20
2024-05-09T04:53:06.133Z,87.40
2024-05-09T04:55:33.401Z,87.60
2024-05-09T04:58:00.274Z,87.70
2024-05-09T05:00:34.760Z,87.40
2024-05-09T05:03:10.216Z,87.30
2024-05-09T05:05:43.529Z,87.40
2024-05-09T05:08:19.161Z,87.40
2024-05-09T05:10:48.112Z,87.50
2024-05-09T05:13:17.199Z,87.60
2024-05-09T05:15:53.306Z,87.60
2024-05-09T05:18:20.435Z,87.50
2024-05-09T05:20:47.705Z,87.60
2024-05-09T05:23:16.276Z,87.60
2024-05-09T05:25:43.915Z,87.60
2024-05-09T05:28:11.153Z,87.60
2024-05-09T05:30:41.267Z,88.10
2024-05-09T05:33:11.445Z,88.20
2024-05-09T05:35:38.705Z,88.40
2024-05-09T05:38:07.138Z,88.80
2024-05-09T05:40:37.183Z,89.00
2024-05-09T05:43:09.100Z,88.90
2024-05-09T05:45:36.265Z,88.80
2024-05-09T05:48:04.845Z,88.70
2024-05-09T05:50:36.126Z,88.50
2024-05-09T05:53:09.116Z,88.20
2024-05-09T05:55:36.847Z,88.10
2024-05-09T05:58:03.866Z,87.90
2024-05-09T06:00:38.111Z,88.10
2024-05-09T06:03:07.440Z,88.00
2024-05-09T06:05:35.670Z,87.80
2024-05-09T06:08:02.598Z,87.60
2024-05-09T06:10:37.607Z,87.30
2024-05-09T06:13:07.278Z,86.90
2024-05-09T06:15:34.178Z,86.80
2024-05-09T06:18:01.641Z,86.70
2024-05-09T06:20:35.638Z,86.50
2024-05-09T06:23:08.597Z,86.20
2024-05-09T06:25:36.562Z,85.90
2024-05-09T06:28:03.823Z,85.10
2024-05-09T06:30:38.392Z,85.20
2024-05-09T06:33:10.652Z,85.00
2024-05-09T06:35:39.301Z,84.80
2024-05-09T06:38:09.173Z,84.40
2024-05-09T06:40:39.451Z,84.10
2024-05-09T06:43:11.718Z,83.40
2024-05-09T06:45:39.785Z,83.20
2024-05-09T06:48:08.642Z,82.70
2024-05-09T06:50:38.114Z,82.60
2024-05-09T06:53:06.946Z,82.40
2024-05-09T06:55:33.791Z,82.00
2024-05-09T06:58:00.743Z,81.70
2024-05-09T07:00:35.374Z,81.20
2024-05-09T07:03:16.066Z,81.10
2024-05-09T07:05:46.243Z,80.70
2024-05-09T07:08:14.212Z,80.70
2024-05-09T07:10:41.272Z,80.00
2024-05-09T07:13:12.360Z,80.70
2024-05-09T07:15:40.363Z,80.00
2024-05-09T07:18:11.779Z,79.30
2024-05-09T07:20:39.645Z,77.10
2024-05-09T07:23:09.812Z,77.80
2024-05-09T07:25:37.004Z,77.60
2024-05-09T07:28:04.279Z,77.70
2024-05-09T07:30:34.259Z,77.90
2024-05-09T07:33:02.894Z,77.70
2024-05-09T07:35:30.788Z,77.60
2024-05-09T07:37:57.949Z,76.90
2024-05-09T07:40:32.753Z,76.30
2024-05-09T07:43:07.257Z,76.30
2024-05-09T07:52:23.790Z,74.00
2024-05-09T07:53:38.953Z,74.90
2024-05-09T07:56:09.378Z,74.40
2024-05-09T07:58:37.014Z,73.90
2024-05-09T08:01:04.346Z,73.30
2024-05-09T08:03:31.649Z,72.90
2024-05-09T08:05:58.431Z,72.90
2024-05-09T08:08:25.161Z,71.70
2024-05-09T08:10:52.063Z,71.80
2024-05-09T08:13:19.055Z,71.00
2024-05-09T08:15:46.036Z,69.70
2024-05-09T08:18:12.941Z,71.00
2024-05-09T08:20:41.440Z,69.10
2024-05-09T08:23:08.459Z,69.80
2024-05-09T08:25:35.344Z,69.50
2024-05-09T08:28:04.613Z,69.50
2024-05-09T08:30:36.737Z,69.90
2024-05-09T08:33:06.577Z,69.20
2024-05-09T08:35:34.992Z,68.30
2024-05-09T08:38:07.130Z,67.60
2024-05-09T08:40:36.448Z,67.40
2024-05-09T08:43:10.727Z,68.20
2024-05-09T08:45:43.185Z,66.70
2024-05-09T08:48:13.111Z,65.00
2024-05-09T08:50:41.211Z,66.20
2024-05-09T08:53:08.870Z,65.10
2024-05-09T08:55:40.263Z,65.50
2024-05-09T08:58:14.157Z,64.90
2024-05-09T09:00:42.980Z,65.80
2024-05-09T09:03:17.642Z,65.30
2024-05-09T09:06:07.041Z,65.20
2024-05-09T09:08:33.815Z,62.40
2024-05-09T09:11:00.688Z,64.60
2024-05-09T09:13:27.871Z,62.80
2024-05-09T09:15:58.220Z,61.90
2024-05-09T09:18:30.044Z,63.60
2024-05-09T09:20:57.022Z,62.30
2024-05-09T09:23:23.864Z,61.90
2024-05-09T09:25:50.903Z,61.60
2024-05-09T09:28:17.984Z,62.00
2024-05-09T09:30:45.696Z,63.10
2024-05-09T09:33:12.664Z,62.30
2024-05-09T09:35:40.450Z,62.20
2024-05-09T09:38:08.211Z,62.70
2024-05-09T09:40:40.980Z,62.90
2024-05-09T09:43:15.412Z,63.20
2024-05-09T09:45:44.171Z,64.20
2024-05-09T09:48:12.180Z,63.30
2024-05-09T09:50:39.995Z,62.60
2024-05-09T09:53:07.923Z,61.10
2024-05-09T09:55:35.692Z,62.30
2024-05-09T09:58:04.379Z,63.10
2024-05-09T10:00:33.611Z,64.10
2024-05-09T10:03:01.965Z,63.40
2024-05-09T10:05:29.892Z,62.90
2024-05-09T10:07:58.491Z,63.80
2024-05-09T10:10:32.128Z,63.50
2024-05-09T10:13:02.713Z,62.90
2024-05-09T10:15:29.723Z,63.00
2024-05-09T10:18:08.452Z,63.60
2024-05-09T10:20:44.635Z,63.90
2024-05-09T10:23:24.795Z,62.60
2024-05-09T10:26:17.736Z,62.50
2024-05-09T10:28:44.986Z,62.20
2024-05-09T10:31:13.859Z,61.50
2024-05-09T10:33:52.475Z,61.40
2024-05-09T10:36:23.737Z,61.80
2024-05-09T10:38:52.431Z,60.30
2024-05-09T10:41:20.409Z,60.70
2024-05-09T10:43:47.690Z,59.40
2024-05-09T10:46:15.234Z,59.70
2024-05-09T10:48:43.762Z,59.60
2024-05-09T10:51:11.418Z,60.90
2024-05-09T10:53:42.333Z,59.10
2024-05-09T10:56:09.713Z,57.40
2024-05-09T10:58:36.831Z,59.90
2024-05-09T11:01:06.679Z,59.50
2024-05-09T11:03:35.011Z,58.30
2024-05-09T11:06:02.394Z,56.80
2024-05-09T11:08:31.815Z,58.40
2024-05-09T11:11:04.669Z,58.70
2024-05-09T11:13:33.480Z,58.90
2024-05-09T11:16:01.261Z,59.10
2024-05-09T11:18:31.912Z,58.70
2024-05-09T11:21:01.826Z,59.50
2024-05-09T11:23:31.958Z,59.40
2024-05-09T11:25:59.255Z,59.50
2024-05-09T11:28:28.414Z,59.80
2024-05-09T11:31:09.071Z,60.10
2024-05-09T11:33:38.627Z,59.50
2024-05-09T11:36:06.696Z,59.30
2024-05-09T11:38:33.778Z,59.60
2024-05-09T11:41:00.542Z,59.10
2024-05-09T11:43:27.345Z,59.50
2024-05-09T11:45:55.215Z,59.20
2024-05-09T11:48:22.234Z,60.10
2024-05-09T11:50:49.213Z,60.40
2024-05-09T11:53:15.976Z,60.60
2024-05-09T11:55:42.726Z,60.60
2024-05-09T11:58:09.668Z,60.40
2024-05-09T12:00:37.760Z,60.60
2024-05-09T12:03:05.968Z,61.20
2024-05-09T12:05:34.240Z,61.20
2024-05-09T12:08:01.678Z,60.80
2024-05-09T12:12:58.541Z,61.10
2024-05-09T12:15:25.355Z,61.20
2024-05-09T12:17:52.226Z,61.80
2024-05-09T12:20:28.525Z,62.30
2024-05-09T12:23:02.156Z,61.10
2024-05-09T12:25:28.934Z,61.50
2024-05-09T12:27:55.882Z,62.00
2024-05-09T12:30:32.760Z,60.30
2024-05-09T12:33:04.672Z,60.20
2024-05-09T12:35:31.884Z,60.20
2024-05-09T12:37:58.701Z,60.00
2024-05-09T12:40:34.379Z,60.00
2024-05-09T12:43:05.081Z,60.00
2024-05-09T12:45:32.273Z,59.90
2024-05-09T12:47:59.622Z,60.20
2024-05-09T12:50:32.400Z,60.50
2024-05-09T12:53:01.726Z,60.60
2024-05-09T12:55:33.783Z,60.40
2024-05-09T12:58:08.131Z,60.30
2024-05-09T13:00:35.285Z,60.40
2024-05-09T13:03:02.267Z,59.90
2024-05-09T13:05:29.702Z,60.00
2024-05-09T13:07:57.290Z,59.80
2024-05-09T13:10:31.656Z,60.10
2024-05-09T13:13:00.809Z,60.00
2024-05-09T13:15:29.876Z,59.50
2024-05-09T13:18:00.294Z,60.10
2024-05-09T13:20:33.489Z,60.00
2024-05-09T13:23:07.839Z,59.90
2024-05-09T13:25:36.192Z,60.40
2024-05-09T13:28:06.814Z,59.90
2024-05-09T13:30:39.434Z,60.40
2024-05-09T13:33:13.444Z,60.70
2024-05-09T13:35:46.687Z,60.80
2024-05-09T13:38:17.015Z,60.80
2024-05-09T13:40:44.049Z,60.90
2024-05-09T13:43:11.192Z,61.10
2024-05-09T13:45:38.156Z,60.50
2024-05-09T13:48:06.716Z,60.50
2024-05-09T13:50:36.206Z,60.10
2024-05-09T13:53:06.516Z,60.60
2024-05-09T13:55:35.180Z,60.10
2024-05-09T13:58:02.601Z,60.40
2024-05-09T14:00:42.106Z,60.50
2024-05-09T14:03:14.659Z,61.00
2024-05-09T14:05:42.056Z,60.60
2024-05-09T14:08:09.093Z,60.70
2024-05-09T14:10:36.245Z,60.60
2024-05-09T14:13:03.230Z,60.80
2024-05-09T14:15:30.188Z,60.70
2024-05-09T14:17:57.150Z,60.70
2024-05-09T14:20:30.786Z,60.70
2024-05-09T14:23:00.656Z,60.50
2024-05-09T14:25:29.794Z,60.00
2024-05-09T14:27:58.120Z,60.00
2024-05-09T14:30:34.067Z,59.90
2024-05-09T14:33:05.211Z,60.00
2024-05-09T14:35:32.643Z,59.90
2024-05-09T14:37:59.540Z,57.10
2024-05-09T14:40:36.738Z,59.00
2024-05-09T14:43:09.643Z,58.70
2024-05-09T14:45:36.490Z,59.10
2024-05-09T14:48:04.107Z,59.20
2024-05-09T14:50:36.659Z,58.90
2024-05-09T14:53:07.370Z,58.20
2024-05-09T14:55:37.403Z,56.10
2024-05-09T14:58:09.632Z,58.20
2024-05-09T15:00:46.115Z,59.00
2024-05-09T15:03:17.225Z,59.00
2024-05-09T15:05:44.853Z,59.30
2024-05-09T15:08:11.679Z,59.10
2024-05-09T15:10:39.079Z,58.10
2024-05-09T15:13:08.089Z,58.30
2024-05-09T15:15:36.942Z,58.90
2024-05-09T15:18:05.056Z,58.00
2024-05-09T15:20:35.979Z,57.90
2024-05-09T15:23:04.990Z,57.30
2024-05-09T15:25:33.720Z,58.00
2024-05-09T15:28:00.782Z,58.90
2024-05-09T15:30:31.087Z,58.30
2024-05-09T15:33:01.109Z,58.50
2024-05-09T15:35:28.255Z,58.50
2024-05-09T15:37:55.717Z,58.00
2024-05-09T15:40:34.367Z,58.30
2024-05-09T15:43:06.397Z,58.10
2024-05-09T15:45:34.449Z,57.60
2024-05-09T15:48:02.453Z,57.80
2024-05-09T15:50:36.902Z,56.50
2024-05-09T15:53:08.518Z,56.60
2024-05-09T15:55:36.307Z,56.80
2024-05-09T15:58:04.645Z,56.90
2024-05-09T16:00:38.096Z,57.00
2024-05-09T16:03:09.405Z,57.10
2024-05-09T16:05:36.932Z,56.80
2024-05-09T16:08:04.509Z,57.20
2024-05-09T16:10:33.315Z,57.20
2024-05-09T16:13:02.364Z,57.20
2024-05-09T16:15:29.903Z,57.00
2024-05-09T16:17:57.032Z,57.50
2024-05-09T16:22:54.342Z,58.20
2024-05-09T16:25:21.183Z,57.20
2024-05-09T16:27:48.156Z,58.00
2024-05-09T16:30:21.258Z,58.40
2024-05-09T16:32:55.172Z,58.10
2024-05-09T16:35:22.101Z,57.90
2024-05-09T16:37:49.399Z,57.70
2024-05-09T16:40:25.250Z,57.50
2024-05-09T16:43:03.725Z,57.80
2024-05-09T16:45:30.904Z,58.00
2024-05-09T16:47:59.082Z,58.10
2024-05-09T16:50:31.126Z,58.00
2024-05-09T16:53:00.327Z,58.30
2024-05-09T16:55:27.428Z,58.10
2024-05-09T16:57:55.240Z,58.50
2024-05-09T17:00:31.488Z,58.60
2024-05-09T17:03:07.177Z,58.20
2024-05-09T17:05:34.781Z,57.70
2024-05-09T17:08:02.110Z,57.50
2024-05-09T17:10:33.078Z,57.50
2024-05-09T17:13:06.713Z,57.70
2024-05-09T17:15:35.657Z,58.00
2024-05-09T17:18:03.702Z,58.40
2024-05-09T17:20:34.612Z,58.60
2024-05-09T17:23:05.649Z,58.70
2024-05-09T17:25:33.310Z,58.70
2024-05-09T17:28:06.100Z,58.90
2024-05-09T17:30:36.679Z,58.90
2024-05-09T17:33:06.911Z,59.00
2024-05-09T17:35:34.828Z,59.30
2024-05-09T17:38:01.818Z,59.30
2024-05-09T17:40:33.625Z,59.60
2024-05-09T17:43:03.975Z,60.10
2024-05-09T17:45:33.382Z,60.30
2024-05-09T17:48:01.534Z,60.60
2024-05-09T17:50:35.143Z,60.70
2024-05-09T17:53:07.998Z,61.00
2024-05-09T17:55:35.908Z,61.40
2024-05-09T17:58:04.117Z,61.80
2024-05-09T18:00:37.959Z,62.20
2024-05-09T18:03:10.594Z,62.60
2024-05-09T18:05:38.197Z,62.80
2024-05-09T18:08:06.609Z,62.70
2024-05-09T18:10:37.788Z,63.10
2024-05-09T18:13:08.135Z,63.50
2024-05-09T18:15:35.473Z,63.80
2024-05-09T18:18:03.418Z,63.90
2024-05-09T18:20:39.889Z,63.80
2024-05-09T18:23:13.032Z,64.20
2024-05-09T18:25:39.978Z,64.40
2024-05-09T18:28:07.250Z,64.50
2024-05-09T18:30:36.419Z,64.40
2024-05-09T18:33:06.404Z,64.50
2024-05-09T18:35:34.752Z,64.60
2024-05-09T18:38:01.881Z,64.60
2024-05-09T18:40:34.146Z,64.90
2024-05-09T18:43:06.261Z,64.90
2024-05-09T18:45:34.792Z,64.60
2024-05-09T18:48:01.779Z,64.60
2024-05-09T18:50:35.066Z,65.10
2024-05-09T18:53:09.801Z,65.00
2024-05-09T18:55:36.635Z,65.10
2024-05-09T18:58:06.882Z,65.20
2024-05-09T19:00:37.536Z,65.40
2024-05-09T19:03:12.661Z,65.50
2024-05-09T19:05:42.549Z,65.70
2024-05-09T19:08:10.468Z,65.60
2024-05-09T19:10:38.957Z,66.10
2024-05-09T19:13:10.674Z,66.30
2024-05-09T19:15:40.574Z,66.60
2024-05-09T19:18:08.480Z,66.80
2024-05-09T19:20:36.661Z,66.90
2024-05-09T19:23:05.675Z,67.20
2024-05-09T19:25:33.190Z,67.50
2024-05-09T19:28:01.124Z,67.70
2024-05-09T19:30:36.893Z,68.00
2024-05-09T19:33:08.074Z,68.40
2024-05-09T19:35:35.057Z,68.70
2024-05-09T19:38:02.218Z,68.90
2024-05-09T19:40:32.164Z,69.30
2024-05-09T19:43:02.272Z,69.70
2024-05-09T19:45:29.801Z,70.20
2024-05-09T19:47:57.071Z,70.70
2024-05-09T19:50:32.345Z,70.90
2024-05-09T19:53:07.426Z,70.80
2024-05-09T19:55:34.792Z,71.30
2024-05-09T19:58:06.879Z,71.80
2024-05-09T20:00:36.956Z,72.00
2024-05-09T20:03:06.434Z,72.20
2024-05-09T20:05:33.929Z,72.40
2024-05-09T20:08:01.023Z,72.60
2024-05-09T20:10:32.459Z,72.80
2024-05-09T20:13:01.868Z,73.00
2024-05-09T20:15:29.199Z,73.30
2024-05-09T20:17:56.376Z,73.70
2024-05-09T20:20:33.237Z,74.00
2024-05-09T20:23:06.244Z,74.20
2024-05-09T20:25:33.161Z,74.40
2024-05-09T20:28:00.234Z,74.70
2024-05-09T20:30:32.084Z,75.80
2024-05-09T20:33:02.291Z,75.10
2024-05-09T20:35:31.888Z,75.50
2024-05-09T20:37:59.144Z,75.50
2024-05-09T20:40:31.898Z,75.60
2024-05-09T20:43:02.383Z,76.00
2024-05-09T20:45:29.222Z,76.30
2024-05-09T20:47:56.376Z,76.40
2024-05-09T20:50:32.358Z,76.50
2024-05-09T20:53:05.464Z,76.80
2024-05-09T20:55:32.295Z,77.10
2024-05-09T20:57:59.175Z,77.20
2024-05-09T21:00:34.948Z,77.50
2024-05-09T21:03:07.294Z,77.80
2024-05-09T21:05:35.251Z,78.10
2024-05-09T21:08:02.777Z,78.20
2024-05-09T21:10:32.435Z,78.30
2024-05-09T21:13:00.781Z,78.50
2024-05-09T21:15:27.685Z,78.40
2024-05-09T21:17:54.519Z,78.60
2024-05-09T21:20:28.273Z,78.60
2024-05-09T21:22:58.193Z,78.70
2024-05-09T21:25:25.103Z,79.10
2024-05-09T21:27:52.205Z,80.20
2024-05-09T21:30:28.433Z,79.30
2024-05-09T21:33:05.282Z,79.30
2024-05-09T21:35:32.236Z,79.70
2024-05-09T21:37:59.003Z,79.60
2024-05-09T21:40:33.295Z,79.90
2024-05-09T21:43:02.419Z,80.00
2024-05-09T21:45:29.451Z,80.10
2024-05-09T21:47:56.436Z,80.20
2024-05-09T21:50:31.182Z,80.30
2024-05-09T21:53:03.851Z,80.30
2024-05-09T21:55:30.615Z,80.70
2024-05-09T21:57:57.581Z,80.70
2024-05-09T22:00:32.297Z,80.60
2024-05-09T22:03:03.922Z,80.70
2024-05-09T22:05:31.028Z,80.80
2024-05-09T22:07:57.971Z,80.80
2024-05-09T22:10:30.741Z,81.10
2024-05-09T22:13:01.590Z,81.00
2024-05-09T22:15:28.668Z,81.30
2024-05-09T22:17:57.449Z,81.50
2024-05-09T22:20:34.260Z,81.60
2024-05-09T22:23:04.948Z,81.70
2024-05-09T22:25:32.572Z,81.70
2024-05-09T22:28:00.838Z,81.90
2024-05-09T22:30:35.141Z,81.90
2024-05-09T22:33:10.650Z,81.70
2024-05-09T22:35:39.396Z,81.90
2024-05-09T22:38:06.282Z,82.30
2024-05-09T22:40:42.616Z,82.30
2024-05-09T22:43:18.570Z,82.40
2024-05-09T22:45:46.363Z,82.50
2024-05-09T22:48:13.568Z,82.60
2024-05-09T22:50:40.955Z,82.40
2024-05-09T22:53:07.780Z,82.20
2024-05-09T22:55:34.588Z,82.20
2024-05-09T22:58:01.543Z,82.40
2024-05-09T23:00:31.807Z,82.80
2024-05-09T23:03:03.361Z,83.00
2024-05-09T23:05:32.055Z,83.10
2024-05-09T23:08:00.225Z,82.90
2024-05-09T23:10:32.486Z,83.20
2024-05-09T23:13:04.034Z,83.30
2024-05-09T23:15:31.076Z,83.30
2024-05-09T23:17:58.475Z,83.30
2024-05-09T23:20:35.809Z,83.30
2024-05-09T23:23:06.796Z,83.20
2024-05-09T23:25:33.815Z,83.10
2024-05-09T23:28:00.906Z,83.20
2024-05-09T23:30:36.423Z,83.50
2024-05-09T23:33:06.678Z,84.30
2024-05-09T23:35:33.709Z,84.00
2024-05-09T23:38:00.489Z,84.10
2024-05-09T23:40:37.348Z,84.00
2024-05-09T23:43:07.574Z,83.90
2024-05-09T23:45:34.931Z,83.90
2024-05-09T23:48:02.672Z,84.00
2024-05-09T23:50:35.238Z,84.20
2024-05-09T23:53:05.709Z,84.60
2024-05-09T23:55:33.033Z,84.50
2024-05-09T23:58:00.230Z,84.30
